Johannesburg, South Africa

1:23 AM SAST on August 04, 2015 (GMT +0200)
IGAUTENG101 | | Change Station
CLOSE
Current Station
Personal Weather Station
Location: Boksburg, GAUTENG
Elevation: 5466 ft
Nearby Weather Stations

Elev 5466 ft 26.16 °S, 28.28 °E | Updated 21 seconds ago

Clear
Clear
50.0 °F
Feels Like 50.0 °F
N
2.1
Wind Variable Wind from NW
Gusts 4.5 mph

Today
High -- | Low -- °F
--% Chance of Precip.
Yesterday
High -- | Low -- °F
Precip. -- in
6:44 AM 5:42 PM
Waning Gibbous, 83% visible
Pressure 30.39 in
Visibility -9999.0 miles
Clouds
Dew Point 33 °F
Humidity 51%
Rainfall 0.00 in
Snow Depth Not available.
UV 0.0 out of 12
Pollen Not available.
Air Quality Not available.
Flu Activity Not available.
METAR FAOR 032300Z 28006KT 240V300 CAVOK 12/M06 Q1029 NOSIG

More Conditions Fewer Conditions

Pressure 30.39 in
Visibility -9999.0 miles
Clouds
Dew Point 33 °F
Humidity 51%
Rainfall 0.00 in
Snow Depth Not available.
UV 0.0 out of 12
Pollen Not available.
Air Quality Not available.
Flu Activity Not available.
METAR FAOR 032300Z 28006KT 240V300 CAVOK 12/M06 Q1029 NOSIG

More Conditions Fewer Conditions

10-Day Weather Forecast

×

Almanac

Astronomy

Aug. 04, 2015 Rise Set
Actual Time
Civil Twilight
Nautical Twilight
Astronomical Twilight
Moon
Length of Visible Light
Length of Day
Tomorrow will be .
, % of the Moon is Illuminated

Today's Extremes

Country Highs Country Lows

Community

WunderPhotos

Upload Photos

1,843,786 photos uploaded!

WunderBlogs® & News

Nearby

Air Quality

  Air Quality AQ Index Pollutant
Not available.

Snow Depth

Station Depth Elevation

Earthquake Activity

City Distance Mag. Time & Date
Minimum magnitude displayed is 2.5.

Coastal Water Temperatures

Place Temperature

Stations

Nearby Weather Stations

Station Location Temp. Windchill Dew Point Humidity Wind Precip. Elev Updated Type